sensor_id;sensor_type;location;lat;lon;timestamp;P1;durP1;ratioP1;P2;durP2;ratioP2
4325;SDS011;58429;49.826;10.880;2023-06-22T00:00:12;2.5;;;1.5;;
4325;SDS011;58429;49.826;10.880;2023-06-22T00:01:12;2.5;;;1.6;;
4325;SDS011;58429;49.826;10.880;2023-06-22T00:02:12;2.5;;;1.6;;
4325;SDS011;58429;49.826;10.880;2023-06-22T00:03:12;2.5;;;1.6;;
4325;SDS011;58429;49.826;10.880;2023-06-22T00:04:12;2.5;;;1.6;;
4325;SDS011;58429;49.826;10.880;2023-06-22T00:05:12;2.5;;;1.6;;
4325;SDS011;58429;49.826;10.880;2023-06-22T00:06:12;2.5;;;1.6;;
4325;SDS011;58429;49.826;10.880;2023-06-22T00:07:12;2.5;;;1.6;;
4325;SDS011;58429;49.826;10.880;2023-06-22T00:08:12;2.4;;;1.5;;
4325;SDS011;58429;49.826;10.880;2023-06-22T00:09:12;2.4;;;1.5;;
4325;SDS011;58429;49.826;10.880;2023-06-22T00:10:12;2.4;;;1.5;;
4325;SDS011;58429;49.826;10.880;2023-06-22T00:11:12;2.5;;;1.6;;
4325;SDS011;58429;49.826;10.880;2023-06-22T00:12:12;2.5;;;1.6;;
4325;SDS011;58429;49.826;10.880;2023-06-22T00:13:12;2.5;;;1.6;;
4325;SDS011;58429;49.826;10.880;2023-06-22T00:14:12;2.5;;;1.5;;
4325;SDS011;58429;49.826;10.880;2023-06-22T00:15:12;2.5;;;1.5;;
4325;SDS011;58429;49.826;10.880;2023-06-22T00:16:12;2.5;;;1.5;;
4325;SDS011;58429;49.826;10.880;2023-06-22T00:17:12;2.5;;;1.5;;
4325;SDS011;58429;49.826;10.880;2023-06-22T00:18:12;2.5;;;1.5;;
4325;SDS011;58429;49.826;10.880;2023-06-22T00:19:12;2.5;;;1.5;;
4325;SDS011;58429;49.826;10.880;2023-06-22T00:20:12;2.4;;;1.5;;
4325;SDS011;58429;49.826;10.880;2023-06-22T00:21:12;2.4;;;1.5;;
4325;SDS011;58429;49.826;10.880;2023-06-22T00:22:13;2.4;;;1.5;;
4325;SDS011;58429;49.826;10.880;2023-06-22T00:23:12;2.5;;;1.6;;
4325;SDS011;58429;49.826;10.880;2023-06-22T00:24:12;2.5;;;1.6;;
4325;SDS011;58429;49.826;10.880;2023-06-22T00:25:12;2.5;;;1.6;;
4325;SDS011;58429;49.826;10.880;2023-06-22T00:26:12;2.7;;;1.7;;
4325;SDS011;58429;49.826;10.880;2023-06-22T00:27:12;2.7;;;1.7;;
4325;SDS011;58429;49.826;10.880;2023-06-22T00:28:12;2.7;;;1.7;;
4325;SDS011;58429;49.826;10.880;2023-06-22T00:29:12;2.6;;;1.6;;
4325;SDS011;58429;49.826;10.880;2023-06-22T00:30:12;2.6;;;1.6;;
4325;SDS011;58429;49.826;10.880;2023-06-22T00:31:12;2.6;;;1.6;;
4325;SDS011;58429;49.826;10.880;2023-06-22T00:32:12;2.4;;;1.5;;
4325;SDS011;58429;49.826;10.880;2023-06-22T00:33:12;2.4;;;1.5;;
4325;SDS011;58429;49.826;10.880;2023-06-22T00:34:12;2.4;;;1.5;;
4325;SDS011;58429;49.826;10.880;2023-06-22T00:35:12;2.4;;;1.5;;
4325;SDS011;58429;49.826;10.880;2023-06-22T00:36:12;2.4;;;1.5;;
4325;SDS011;58429;49.826;10.880;2023-06-22T00:37:12;2.4;;;1.5;;
4325;SDS011;58429;49.826;10.880;2023-06-22T00:38:12;2.6;;;1.6;;
4325;SDS011;58429;49.826;10.880;2023-06-22T00:39:12;2.6;;;1.6;;
4325;SDS011;58429;49.826;10.880;2023-06-22T00:40:12;2.6;;;1.6;;
4325;SDS011;58429;49.826;10.880;2023-06-22T00:41:12;2.5;;;1.6;;
4325;SDS011;58429;49.826;10.880;2023-06-22T00:42:12;2.5;;;1.6;;
4325;SDS011;58429;49.826;10.880;2023-06-22T00:43:12;2.5;;;1.6;;
4325;SDS011;58429;49.826;10.880;2023-06-22T00:44:12;2.5;;;1.6;;
4325;SDS011;58429;49.826;10.880;2023-06-22T00:45:12;2.5;;;1.6;;
4325;SDS011;58429;49.826;10.880;2023-06-22T00:46:12;2.5;;;1.6;;
4325;SDS011;58429;49.826;10.880;2023-06-22T00:47:12;2.4;;;1.5;;
4325;SDS011;58429;49.826;10.880;2023-06-22T00:48:12;2.4;;;1.5;;
4325;SDS011;58429;49.826;10.880;2023-06-22T00:49:12;2.4;;;1.5;;
4325;SDS011;58429;49.826;10.880;2023-06-22T00:50:13;2.6;;;1.6;;
4325;SDS011;58429;49.826;10.880;2023-06-22T00:51:12;2.6;;;1.6;;
4325;SDS011;58429;49.826;10.880;2023-06-22T00:52:12;2.6;;;1.6;;
4325;SDS011;58429;49.826;10.880;2023-06-22T00:53:12;2.5;;;1.6;;
4325;SDS011;58429;49.826;10.880;2023-06-22T00:54:12;2.5;;;1.6;;
4325;SDS011;58429;49.826;10.880;2023-06-22T00:55:12;2.5;;;1.6;;
4325;SDS011;58429;49.826;10.880;2023-06-22T00:56:12;2.4;;;1.5;;
4325;SDS011;58429;49.826;10.880;2023-06-22T00:57:12;2.4;;;1.5;;
4325;SDS011;58429;49.826;10.880;2023-06-22T00:58:12;2.4;;;1.5;;
4325;SDS011;58429;49.826;10.880;2023-06-22T00:59:12;2.6;;;1.6;;
4325;SDS011;58429;49.826;10.880;2023-06-22T01:00:12;2.6;;;1.6;;
4325;SDS011;58429;49.826;10.880;2023-06-22T01:01:12;2.6;;;1.6;;
4325;SDS011;58429;49.826;10.880;2023-06-22T01:02:12;2.6;;;1.6;;
4325;SDS011;58429;49.826;10.880;2023-06-22T01:03:12;2.6;;;1.6;;
4325;SDS011;58429;49.826;10.880;2023-06-22T01:04:12;2.6;;;1.6;;
4325;SDS011;58429;49.826;10.880;2023-06-22T01:05:12;2.6;;;1.6;;
4325;SDS011;58429;49.826;10.880;2023-06-22T01:06:14;2.6;;;1.6;;
4325;SDS011;58429;49.826;10.880;2023-06-22T01:07:13;2.6;;;1.6;;
4325;SDS011;58429;49.826;10.880;2023-06-22T01:08:15;2.6;;;1.6;;
4325;SDS011;58429;49.826;10.880;2023-06-22T01:09:13;2.6;;;1.6;;
4325;SDS011;58429;49.826;10.880;2023-06-22T01:10:14;2.6;;;1.6;;
4325;SDS011;58429;49.826;10.880;2023-06-22T01:11:14;2.4;;;1.5;;
4325;SDS011;58429;49.826;10.880;2023-06-22T01:12:12;2.4;;;1.5;;
4325;SDS011;58429;49.826;10.880;2023-06-22T01:13:16;2.4;;;1.5;;
4325;SDS011;58429;49.826;10.880;2023-06-22T01:14:14;2.5;;;1.6;;
4325;SDS011;58429;49.826;10.880;2023-06-22T01:15:13;2.5;;;1.6;;
4325;SDS011;58429;49.826;10.880;2023-06-22T01:16:13;2.5;;;1.6;;
4325;SDS011;58429;49.826;10.880;2023-06-22T01:17:12;2.6;;;1.6;;
4325;SDS011;58429;49.826;10.880;2023-06-22T01:18:12;2.6;;;1.6;;
4325;SDS011;58429;49.826;10.880;2023-06-22T01:19:17;2.6;;;1.6;;
4325;SDS011;58429;49.826;10.880;2023-06-22T01:20:12;2.6;;;1.6;;
4325;SDS011;58429;49.826;10.880;2023-06-22T01:21:14;2.6;;;1.6;;
4325;SDS011;58429;49.826;10.880;2023-06-22T01:22:13;2.6;;;1.6;;
4325;SDS011;58429;49.826;10.880;2023-06-22T01:23:16;2.5;;;1.6;;
4325;SDS011;58429;49.826;10.880;2023-06-22T01:24:15;2.5;;;1.6;;
4325;SDS011;58429;49.826;10.880;2023-06-22T01:25:13;2.5;;;1.6;;
4325;SDS011;58429;49.826;10.880;2023-06-22T01:26:13;2.6;;;1.6;;
4325;SDS011;58429;49.826;10.880;2023-06-22T01:27:15;2.6;;;1.6;;
4325;SDS011;58429;49.826;10.880;2023-06-22T01:28:17;2.6;;;1.6;;
4325;SDS011;58429;49.826;10.880;2023-06-22T01:29:12;2.6;;;1.7;;
4325;SDS011;58429;49.826;10.880;2023-06-22T01:30:12;2.6;;;1.7;;
4325;SDS011;58429;49.826;10.880;2023-06-22T01:31:13;2.6;;;1.7;;
4325;SDS011;58429;49.826;10.880;2023-06-22T01:32:12;2.5;;;1.6;;
4325;SDS011;58429;49.826;10.880;2023-06-22T01:33:13;2.5;;;1.6;;
4325;SDS011;58429;49.826;10.880;2023-06-22T01:34:12;2.5;;;1.6;;
4325;SDS011;58429;49.826;10.880;2023-06-22T01:35:12;2.4;;;1.6;;
4325;SDS011;58429;49.826;10.880;2023-06-22T01:36:12;2.4;;;1.6;;
4325;SDS011;58429;49.826;10.880;2023-06-22T01:37:12;2.4;;;1.6;;
4325;SDS011;58429;49.826;10.880;2023-06-22T01:38:12;2.6;;;1.6;;
4325;SDS011;58429;49.826;10.880;2023-06-22T01:39:12;2.6;;;1.6;;
4325;SDS011;58429;49.826;10.880;2023-06-22T01:40:12;2.6;;;1.6;;
4325;SDS011;58429;49.826;10.880;2023-06-22T01:41:12;2.4;;;1.5;;
4325;SDS011;58429;49.826;10.880;2023-06-22T01:42:12;2.4;;;1.5;;
4325;SDS011;58429;49.826;10.880;2023-06-22T01:43:12;2.4;;;1.5;;
4325;SDS011;58429;49.826;10.880;2023-06-22T01:44:12;2.4;;;1.5;;
4325;SDS011;58429;49.826;10.880;2023-06-22T01:45:12;2.4;;;1.5;;
4325;SDS011;58429;49.826;10.880;2023-06-22T01:46:13;2.4;;;1.5;;
4325;SDS011;58429;49.826;10.880;2023-06-22T01:47:12;2.5;;;1.6;;
4325;SDS011;58429;49.826;10.880;2023-06-22T01:48:12;2.5;;;1.6;;
4325;SDS011;58429;49.826;10.880;2023-06-22T01:49:12;2.5;;;1.6;;
4325;SDS011;58429;49.826;10.880;2023-06-22T01:50:12;2.5;;;1.6;;
4325;SDS011;58429;49.826;10.880;2023-06-22T01:51:12;2.5;;;1.6;;
4325;SDS011;58429;49.826;10.880;2023-06-22T01:52:12;2.5;;;1.6;;
4325;SDS011;58429;49.826;10.880;2023-06-22T01:53:12;2.6;;;1.6;;
4325;SDS011;58429;49.826;10.880;2023-06-22T01:54:12;2.6;;;1.6;;
4325;SDS011;58429;49.826;10.880;2023-06-22T01:55:12;2.6;;;1.6;;
4325;SDS011;58429;49.826;10.880;2023-06-22T01:56:12;2.6;;;1.6;;
4325;SDS011;58429;49.826;10.880;2023-06-22T01:57:12;2.6;;;1.6;;
4325;SDS011;58429;49.826;10.880;2023-06-22T01:58:12;2.6;;;1.6;;
4325;SDS011;58429;49.826;10.880;2023-06-22T01:59:14;2.8;;;1.7;;
4325;SDS011;58429;49.826;10.880;2023-06-22T02:00:13;2.8;;;1.7;;
4325;SDS011;58429;49.826;10.880;2023-06-22T02:01:13;2.8;;;1.7;;
4325;SDS011;58429;49.826;10.880;2023-06-22T02:02:12;2.4;;;1.5;;
4325;SDS011;58429;49.826;10.880;2023-06-22T02:03:13;2.4;;;1.5;;
4325;SDS011;58429;49.826;10.880;2023-06-22T02:04:13;2.4;;;1.5;;
4325;SDS011;58429;49.826;10.880;2023-06-22T02:05:12;2.4;;;1.5;;
4325;SDS011;58429;49.826;10.880;2023-06-22T02:06:14;2.6;;;1.6;;
4325;SDS011;58429;49.826;10.880;2023-06-22T02:07:13;2.6;;;1.6;;
4325;SDS011;58429;49.826;10.880;2023-06-22T02:08:13;2.6;;;1.6;;
4325;SDS011;58429;49.826;10.880;2023-06-22T02:09:14;2.5;;;1.6;;
4325;SDS011;58429;49.826;10.880;2023-06-22T02:10:12;2.5;;;1.6;;
4325;SDS011;58429;49.826;10.880;2023-06-22T02:11:12;2.5;;;1.6;;
4325;SDS011;58429;49.826;10.880;2023-06-22T02:12:12;2.6;;;1.6;;
4325;SDS011;58429;49.826;10.880;2023-06-22T02:13:12;2.6;;;1.6;;
4325;SDS011;58429;49.826;10.880;2023-06-22T02:14:12;2.6;;;1.6;;
4325;SDS011;58429;49.826;10.880;2023-06-22T02:15:12;2.6;;;1.6;;
4325;SDS011;58429;49.826;10.880;2023-06-22T02:16:12;2.6;;;1.6;;
4325;SDS011;58429;49.826;10.880;2023-06-22T02:17:12;2.6;;;1.6;;
4325;SDS011;58429;49.826;10.880;2023-06-22T02:18:12;2.6;;;1.6;;
4325;SDS011;58429;49.826;10.880;2023-06-22T02:19:12;2.6;;;1.6;;
4325;SDS011;58429;49.826;10.880;2023-06-22T02:20:12;2.6;;;1.6;;
4325;SDS011;58429;49.826;10.880;2023-06-22T02:21:12;2.7;;;1.7;;
4325;SDS011;58429;49.826;10.880;2023-06-22T02:22:12;2.7;;;1.7;;
4325;SDS011;58429;49.826;10.880;2023-06-22T02:23:12;2.7;;;1.7;;
4325;SDS011;58429;49.826;10.880;2023-06-22T02:24:12;2.5;;;1.5;;
4325;SDS011;58429;49.826;10.880;2023-06-22T02:25:12;2.5;;;1.5;;
4325;SDS011;58429;49.826;10.880;2023-06-22T02:26:12;2.5;;;1.5;;
4325;SDS011;58429;49.826;10.880;2023-06-22T02:27:12;2.7;;;1.7;;
4325;SDS011;58429;49.826;10.880;2023-06-22T02:28:12;2.7;;;1.7;;
4325;SDS011;58429;49.826;10.880;2023-06-22T02:29:12;2.7;;;1.7;;
4325;SDS011;58429;49.826;10.880;2023-06-22T02:30:12;2.4;;;1.5;;
4325;SDS011;58429;49.826;10.880;2023-06-22T02:31:12;2.4;;;1.5;;
4325;SDS011;58429;49.826;10.880;2023-06-22T02:32:12;2.4;;;1.5;;
4325;SDS011;58429;49.826;10.880;2023-06-22T02:33:12;2.6;;;1.6;;
4325;SDS011;58429;49.826;10.880;2023-06-22T02:34:12;2.6;;;1.6;;
4325;SDS011;58429;49.826;10.880;2023-06-22T02:35:12;2.6;;;1.6;;
4325;SDS011;58429;49.826;10.880;2023-06-22T02:36:12;2.5;;;1.6;;
4325;SDS011;58429;49.826;10.880;2023-06-22T02:37:12;2.5;;;1.6;;
4325;SDS011;58429;49.826;10.880;2023-06-22T02:38:12;2.5;;;1.6;;
4325;SDS011;58429;49.826;10.880;2023-06-22T02:39:13;2.5;;;1.6;;
4325;SDS011;58429;49.826;10.880;2023-06-22T02:40:12;2.5;;;1.6;;
4325;SDS011;58429;49.826;10.880;2023-06-22T02:41:12;2.5;;;1.6;;
4325;SDS011;58429;49.826;10.880;2023-06-22T02:42:13;2.5;;;1.6;;
4325;SDS011;58429;49.826;10.880;2023-06-22T02:43:12;2.5;;;1.6;;
4325;SDS011;58429;49.826;10.880;2023-06-22T02:44:12;2.5;;;1.6;;
4325;SDS011;58429;49.826;10.880;2023-06-22T02:45:12;2.6;;;1.6;;
4325;SDS011;58429;49.826;10.880;2023-06-22T02:46:12;2.6;;;1.6;;
4325;SDS011;58429;49.826;10.880;2023-06-22T02:47:12;2.6;;;1.6;;
4325;SDS011;58429;49.826;10.880;2023-06-22T02:48:12;2.7;;;1.7;;
4325;SDS011;58429;49.826;10.880;2023-06-22T02:49:12;2.7;;;1.7;;
4325;SDS011;58429;49.826;10.880;2023-06-22T02:50:12;2.7;;;1.7;;
4325;SDS011;58429;49.826;10.880;2023-06-22T02:51:12;2.4;;;1.5;;
4325;SDS011;58429;49.826;10.880;2023-06-22T02:52:12;2.4;;;1.5;;
4325;SDS011;58429;49.826;10.880;2023-06-22T02:53:12;2.4;;;1.5;;
4325;SDS011;58429;49.826;10.880;2023-06-22T02:54:12;2.6;;;1.6;;
4325;SDS011;58429;49.826;10.880;2023-06-22T02:55:12;2.6;;;1.6;;
4325;SDS011;58429;49.826;10.880;2023-06-22T02:56:12;2.6;;;1.6;;
4325;SDS011;58429;49.826;10.880;2023-06-22T02:57:12;2.5;;;1.6;;
4325;SDS011;58429;49.826;10.880;2023-06-22T02:58:12;2.5;;;1.6;;
4325;SDS011;58429;49.826;10.880;2023-06-22T02:59:12;2.5;;;1.6;;
4325;SDS011;58429;49.826;10.880;2023-06-22T03:00:13;2.5;;;1.5;;
4325;SDS011;58429;49.826;10.880;2023-06-22T03:01:12;2.5;;;1.5;;
4325;SDS011;58429;49.826;10.880;2023-06-22T03:02:12;2.5;;;1.5;;
4325;SDS011;58429;49.826;10.880;2023-06-22T03:03:12;2.7;;;1.7;;
4325;SDS011;58429;49.826;10.880;2023-06-22T03:04:12;2.7;;;1.7;;
4325;SDS011;58429;49.826;10.880;2023-06-22T03:05:13;2.7;;;1.7;;
4325;SDS011;58429;49.826;10.880;2023-06-22T03:06:12;2.4;;;1.5;;
4325;SDS011;58429;49.826;10.880;2023-06-22T03:07:12;2.4;;;1.5;;
4325;SDS011;58429;49.826;10.880;2023-06-22T03:08:12;2.4;;;1.5;;
4325;SDS011;58429;49.826;10.880;2023-06-22T03:09:12;2.4;;;1.5;;
4325;SDS011;58429;49.826;10.880;2023-06-22T03:10:13;2.4;;;1.5;;
4325;SDS011;58429;49.826;10.880;2023-06-22T03:11:12;2.4;;;1.5;;
4325;SDS011;58429;49.826;10.880;2023-06-22T03:12:12;2.6;;;1.6;;
4325;SDS011;58429;49.826;10.880;2023-06-22T03:13:12;2.6;;;1.6;;
4325;SDS011;58429;49.826;10.880;2023-06-22T03:14:12;2.6;;;1.6;;
4325;SDS011;58429;49.826;10.880;2023-06-22T03:15:12;2.5;;;1.6;;
4325;SDS011;58429;49.826;10.880;2023-06-22T03:16:12;2.5;;;1.6;;
4325;SDS011;58429;49.826;10.880;2023-06-22T03:17:12;2.5;;;1.6;;
4325;SDS011;58429;49.826;10.880;2023-06-22T03:18:12;2.7;;;1.7;;
4325;SDS011;58429;49.826;10.880;2023-06-22T03:19:12;2.7;;;1.7;;
4325;SDS011;58429;49.826;10.880;2023-06-22T03:20:12;2.7;;;1.7;;
4325;SDS011;58429;49.826;10.880;2023-06-22T03:21:12;2.6;;;1.6;;
4325;SDS011;58429;49.826;10.880;2023-06-22T03:22:12;2.6;;;1.6;;
4325;SDS011;58429;49.826;10.880;2023-06-22T03:23:12;2.6;;;1.6;;
4325;SDS011;58429;49.826;10.880;2023-06-22T03:24:12;2.6;;;1.6;;
4325;SDS011;58429;49.826;10.880;2023-06-22T03:25:12;2.6;;;1.6;;
4325;SDS011;58429;49.826;10.880;2023-06-22T03:26:12;2.6;;;1.6;;
4325;SDS011;58429;49.826;10.880;2023-06-22T03:27:12;2.6;;;1.6;;
4325;SDS011;58429;49.826;10.880;2023-06-22T03:28:12;2.6;;;1.6;;
4325;SDS011;58429;49.826;10.880;2023-06-22T03:29:12;2.6;;;1.6;;
4325;SDS011;58429;49.826;10.880;2023-06-22T03:30:12;2.6;;;1.6;;
4325;SDS011;58429;49.826;10.880;2023-06-22T03:31:12;2.6;;;1.6;;
4325;SDS011;58429;49.826;10.880;2023-06-22T03:32:12;2.6;;;1.6;;
4325;SDS011;58429;49.826;10.880;2023-06-22T03:33:12;2.6;;;1.6;;
4325;SDS011;58429;49.826;10.880;2023-06-22T03:34:12;2.6;;;1.6;;
4325;SDS011;58429;49.826;10.880;2023-06-22T03:35:12;2.6;;;1.6;;
4325;SDS011;58429;49.826;10.880;2023-06-22T03:36:12;2.7;;;1.7;;
4325;SDS011;58429;49.826;10.880;2023-06-22T03:37:13;2.7;;;1.7;;
4325;SDS011;58429;49.826;10.880;2023-06-22T03:38:12;2.7;;;1.7;;
4325;SDS011;58429;49.826;10.880;2023-06-22T03:39:12;2.7;;;1.7;;
4325;SDS011;58429;49.826;10.880;2023-06-22T03:40:12;2.7;;;1.7;;
4325;SDS011;58429;49.826;10.880;2023-06-22T03:41:12;2.7;;;1.7;;
4325;SDS011;58429;49.826;10.880;2023-06-22T03:42:13;2.7;;;1.7;;
4325;SDS011;58429;49.826;10.880;2023-06-22T03:43:12;2.7;;;1.7;;
4325;SDS011;58429;49.826;10.880;2023-06-22T03:44:12;2.7;;;1.7;;
4325;SDS011;58429;49.826;10.880;2023-06-22T03:45:12;2.6;;;1.6;;
4325;SDS011;58429;49.826;10.880;2023-06-22T03:46:12;2.6;;;1.6;;
4325;SDS011;58429;49.826;10.880;2023-06-22T03:47:12;2.6;;;1.6;;
4325;SDS011;58429;49.826;10.880;2023-06-22T03:48:12;2.6;;;1.6;;
4325;SDS011;58429;49.826;10.880;2023-06-22T03:49:12;2.6;;;1.6;;
4325;SDS011;58429;49.826;10.880;2023-06-22T03:50:12;2.6;;;1.6;;
4325;SDS011;58429;49.826;10.880;2023-06-22T03:51:12;2.9;;;1.8;;
4325;SDS011;58429;49.826;10.880;2023-06-22T03:52:12;2.9;;;1.8;;
4325;SDS011;58429;49.826;10.880;2023-06-22T03:53:12;2.9;;;1.8;;
4325;SDS011;58429;49.826;10.880;2023-06-22T03:54:12;2.7;;;1.7;;
4325;SDS011;58429;49.826;10.880;2023-06-22T03:55:12;2.7;;;1.7;;
4325;SDS011;58429;49.826;10.880;2023-06-22T03:56:12;2.7;;;1.7;;
4325;SDS011;58429;49.826;10.880;2023-06-22T03:57:12;2.6;;;1.7;;
4325;SDS011;58429;49.826;10.880;2023-06-22T03:58:12;2.6;;;1.7;;
4325;SDS011;58429;49.826;10.880;2023-06-22T03:59:12;2.6;;;1.7;;
4325;SDS011;58429;49.826;10.880;2023-06-22T04:00:13;2.5;;;1.6;;
4325;SDS011;58429;49.826;10.880;2023-06-22T04:01:12;2.5;;;1.6;;
4325;SDS011;58429;49.826;10.880;2023-06-22T04:02:12;2.5;;;1.6;;
4325;SDS011;58429;49.826;10.880;2023-06-22T04:03:12;2.6;;;1.6;;
4325;SDS011;58429;49.826;10.880;2023-06-22T04:04:12;2.6;;;1.6;;
4325;SDS011;58429;49.826;10.880;2023-06-22T04:05:12;2.6;;;1.6;;
4325;SDS011;58429;49.826;10.880;2023-06-22T04:06:12;2.6;;;1.6;;
4325;SDS011;58429;49.826;10.880;2023-06-22T04:07:13;2.5;;;1.5;;
4325;SDS011;58429;49.826;10.880;2023-06-22T04:08:13;2.5;;;1.5;;
4325;SDS011;58429;49.826;10.880;2023-06-22T04:09:13;2.5;;;1.5;;
4325;SDS011;58429;49.826;10.880;2023-06-22T04:10:12;2.6;;;1.6;;
4325;SDS011;58429;49.826;10.880;2023-06-22T04:11:12;2.6;;;1.6;;
4325;SDS011;58429;49.826;10.880;2023-06-22T04:12:12;2.6;;;1.6;;
4325;SDS011;58429;49.826;10.880;2023-06-22T04:13:12;2.7;;;1.7;;
4325;SDS011;58429;49.826;10.880;2023-06-22T04:14:12;2.7;;;1.7;;
4325;SDS011;58429;49.826;10.880;2023-06-22T04:15:13;2.7;;;1.7;;
4325;SDS011;58429;49.826;10.880;2023-06-22T04:16:12;2.6;;;1.6;;
4325;SDS011;58429;49.826;10.880;2023-06-22T04:17:12;2.6;;;1.6;;
4325;SDS011;58429;49.826;10.880;2023-06-22T04:18:12;2.6;;;1.6;;
4325;SDS011;58429;49.826;10.880;2023-06-22T04:19:12;2.7;;;1.7;;
4325;SDS011;58429;49.826;10.880;2023-06-22T04:20:12;2.7;;;1.7;;
4325;SDS011;58429;49.826;10.880;2023-06-22T04:21:12;2.7;;;1.7;;
4325;SDS011;58429;49.826;10.880;2023-06-22T04:22:12;2.8;;;1.7;;
4325;SDS011;58429;49.826;10.880;2023-06-22T04:23:12;2.8;;;1.7;;
4325;SDS011;58429;49.826;10.880;2023-06-22T04:24:12;2.8;;;1.7;;
4325;SDS011;58429;49.826;10.880;2023-06-22T04:25:13;2.7;;;1.7;;
4325;SDS011;58429;49.826;10.880;2023-06-22T04:26:12;2.7;;;1.7;;
4325;SDS011;58429;49.826;10.880;2023-06-22T04:27:12;2.7;;;1.7;;
4325;SDS011;58429;49.826;10.880;2023-06-22T04:28:12;2.6;;;1.6;;
4325;SDS011;58429;49.826;10.880;2023-06-22T04:29:13;2.6;;;1.6;;
4325;SDS011;58429;49.826;10.880;2023-06-22T04:30:12;2.6;;;1.6;;
4325;SDS011;58429;49.826;10.880;2023-06-22T04:31:12;2.6;;;1.6;;
4325;SDS011;58429;49.826;10.880;2023-06-22T04:32:12;2.6;;;1.6;;
4325;SDS011;58429;49.826;10.880;2023-06-22T04:33:13;2.6;;;1.6;;
4325;SDS011;58429;49.826;10.880;2023-06-22T04:34:13;2.6;;;1.6;;
4325;SDS011;58429;49.826;10.880;2023-06-22T04:35:12;2.6;;;1.6;;
4325;SDS011;58429;49.826;10.880;2023-06-22T04:36:12;2.6;;;1.6;;
4325;SDS011;58429;49.826;10.880;2023-06-22T04:37:13;2.6;;;1.6;;
4325;SDS011;58429;49.826;10.880;2023-06-22T04:38:12;2.6;;;1.6;;
4325;SDS011;58429;49.826;10.880;2023-06-22T04:39:13;2.6;;;1.6;;
4325;SDS011;58429;49.826;10.880;2023-06-22T04:40:12;2.6;;;1.6;;
4325;SDS011;58429;49.826;10.880;2023-06-22T04:41:12;2.6;;;1.6;;
4325;SDS011;58429;49.826;10.880;2023-06-22T04:42:12;2.6;;;1.6;;
4325;SDS011;58429;49.826;10.880;2023-06-22T04:43:12;2.8;;;1.7;;
4325;SDS011;58429;49.826;10.880;2023-06-22T04:44:13;2.8;;;1.7;;
4325;SDS011;58429;49.826;10.880;2023-06-22T04:45:12;2.8;;;1.7;;
4325;SDS011;58429;49.826;10.880;2023-06-22T04:46:12;2.6;;;1.7;;
4325;SDS011;58429;49.826;10.880;2023-06-22T04:47:13;2.6;;;1.7;;
4325;SDS011;58429;49.826;10.880;2023-06-22T04:48:12;2.6;;;1.7;;
4325;SDS011;58429;49.826;10.880;2023-06-22T04:49:12;2.7;;;1.7;;
4325;SDS011;58429;49.826;10.880;2023-06-22T04:50:12;2.7;;;1.7;;
4325;SDS011;58429;49.826;10.880;2023-06-22T04:51:12;2.7;;;1.7;;
4325;SDS011;58429;49.826;10.880;2023-06-22T04:52:13;2.8;;;1.7;;
4325;SDS011;58429;49.826;10.880;2023-06-22T04:53:12;2.8;;;1.7;;
4325;SDS011;58429;49.826;10.880;2023-06-22T04:54:12;2.8;;;1.7;;
4325;SDS011;58429;49.826;10.880;2023-06-22T04:55:13;2.7;;;1.7;;
4325;SDS011;58429;49.826;10.880;2023-06-22T04:56:13;2.7;;;1.7;;
4325;SDS011;58429;49.826;10.880;2023-06-22T04:57:13;2.7;;;1.7;;
4325;SDS011;58429;49.826;10.880;2023-06-22T04:58:12;2.9;;;1.8;;
4325;SDS011;58429;49.826;10.880;2023-06-22T04:59:13;2.9;;;1.8;;
4325;SDS011;58429;49.826;10.880;2023-06-22T05:00:13;2.9;;;1.8;;
4325;SDS011;58429;49.826;10.880;2023-06-22T05:01:12;2.7;;;1.7;;
4325;SDS011;58429;49.826;10.880;2023-06-22T05:02:12;2.7;;;1.7;;
4325;SDS011;58429;49.826;10.880;2023-06-22T05:03:13;2.7;;;1.7;;
4325;SDS011;58429;49.826;10.880;2023-06-22T05:04:13;2.8;;;1.7;;
4325;SDS011;58429;49.826;10.880;2023-06-22T05:05:13;2.8;;;1.7;;
4325;SDS011;58429;49.826;10.880;2023-06-22T05:06:13;2.8;;;1.7;;
4325;SDS011;58429;49.826;10.880;2023-06-22T05:07:12;2.6;;;1.6;;
4325;SDS011;58429;49.826;10.880;2023-06-22T05:08:13;2.6;;;1.6;;
4325;SDS011;58429;49.826;10.880;2023-06-22T05:09:12;2.6;;;1.6;;
4325;SDS011;58429;49.826;10.880;2023-06-22T05:10:12;2.7;;;1.6;;
4325;SDS011;58429;49.826;10.880;2023-06-22T05:11:13;2.7;;;1.6;;
4325;SDS011;58429;49.826;10.880;2023-06-22T05:12:13;2.7;;;1.6;;
4325;SDS011;58429;49.826;10.880;2023-06-22T05:13:12;2.8;;;1.7;;
4325;SDS011;58429;49.826;10.880;2023-06-22T05:14:13;2.8;;;1.7;;
4325;SDS011;58429;49.826;10.880;2023-06-22T05:15:13;2.8;;;1.7;;
4325;SDS011;58429;49.826;10.880;2023-06-22T05:16:13;2.8;;;1.7;;
4325;SDS011;58429;49.826;10.880;2023-06-22T05:17:13;2.8;;;1.7;;
4325;SDS011;58429;49.826;10.880;2023-06-22T05:18:12;2.8;;;1.7;;
4325;SDS011;58429;49.826;10.880;2023-06-22T05:19:13;2.9;;;1.8;;
4325;SDS011;58429;49.826;10.880;2023-06-22T05:20:13;2.9;;;1.8;;
4325;SDS011;58429;49.826;10.880;2023-06-22T05:21:13;2.9;;;1.8;;
4325;SDS011;58429;49.826;10.880;2023-06-22T05:22:13;3;;;1.9;;
4325;SDS011;58429;49.826;10.880;2023-06-22T05:23:13;3;;;1.9;;
4325;SDS011;58429;49.826;10.880;2023-06-22T05:24:13;3;;;1.9;;
4325;SDS011;58429;49.826;10.880;2023-06-22T05:25:13;2.9;;;1.8;;
4325;SDS011;58429;49.826;10.880;2023-06-22T05:26:13;2.9;;;1.8;;
4325;SDS011;58429;49.826;10.880;2023-06-22T05:27:13;2.9;;;1.8;;
4325;SDS011;58429;49.826;10.880;2023-06-22T05:28:13;2.8;;;1.8;;
4325;SDS011;58429;49.826;10.880;2023-06-22T05:29:13;2.8;;;1.8;;
4325;SDS011;58429;49.826;10.880;2023-06-22T05:30:13;2.8;;;1.8;;
4325;SDS011;58429;49.826;10.880;2023-06-22T05:31:13;3.1;;;1.9;;
4325;SDS011;58429;49.826;10.880;2023-06-22T05:32:13;3.1;;;1.9;;
4325;SDS011;58429;49.826;10.880;2023-06-22T05:33:13;3.1;;;1.9;;
4325;SDS011;58429;49.826;10.880;2023-06-22T05:34:13;2.7;;;1.7;;
4325;SDS011;58429;49.826;10.880;2023-06-22T05:35:13;2.7;;;1.7;;
4325;SDS011;58429;49.826;10.880;2023-06-22T05:36:13;2.7;;;1.7;;
4325;SDS011;58429;49.826;10.880;2023-06-22T05:37:13;2.9;;;1.8;;
4325;SDS011;58429;49.826;10.880;2023-06-22T05:38:13;2.9;;;1.8;;
4325;SDS011;58429;49.826;10.880;2023-06-22T05:39:13;2.9;;;1.8;;
4325;SDS011;58429;49.826;10.880;2023-06-22T05:40:13;2.8;;;1.8;;
4325;SDS011;58429;49.826;10.880;2023-06-22T05:41:13;2.8;;;1.8;;
4325;SDS011;58429;49.826;10.880;2023-06-22T05:42:13;2.8;;;1.8;;
4325;SDS011;58429;49.826;10.880;2023-06-22T05:43:13;2.8;;;1.7;;
4325;SDS011;58429;49.826;10.880;2023-06-22T05:44:13;2.8;;;1.7;;
4325;SDS011;58429;49.826;10.880;2023-06-22T05:45:13;2.8;;;1.7;;
4325;SDS011;58429;49.826;10.880;2023-06-22T05:46:13;3;;;1.9;;
4325;SDS011;58429;49.826;10.880;2023-06-22T05:47:13;3;;;1.9;;
4325;SDS011;58429;49.826;10.880;2023-06-22T05:48:13;3;;;1.9;;
4325;SDS011;58429;49.826;10.880;2023-06-22T05:49:13;2.7;;;1.7;;
4325;SDS011;58429;49.826;10.880;2023-06-22T05:50:13;2.7;;;1.7;;
4325;SDS011;58429;49.826;10.880;2023-06-22T05:51:13;2.7;;;1.7;;
4325;SDS011;58429;49.826;10.880;2023-06-22T05:52:13;2.8;;;1.8;;
4325;SDS011;58429;49.826;10.880;2023-06-22T05:53:13;2.8;;;1.8;;
4325;SDS011;58429;49.826;10.880;2023-06-22T05:54:13;2.8;;;1.8;;
4325;SDS011;58429;49.826;10.880;2023-06-22T05:55:13;2.9;;;1.8;;
4325;SDS011;58429;49.826;10.880;2023-06-22T05:56:13;2.9;;;1.8;;
4325;SDS011;58429;49.826;10.880;2023-06-22T05:57:13;2.9;;;1.8;;
4325;SDS011;58429;49.826;10.880;2023-06-22T05:58:13;3;;;1.8;;
4325;SDS011;58429;49.826;10.880;2023-06-22T05:59:13;3;;;1.8;;
4325;SDS011;58429;49.826;10.880;2023-06-22T06:00:13;3;;;1.8;;
4325;SDS011;58429;49.826;10.880;2023-06-22T06:01:13;3;;;1.8;;
4325;SDS011;58429;49.826;10.880;2023-06-22T06:02:13;3;;;1.8;;
4325;SDS011;58429;49.826;10.880;2023-06-22T06:03:13;3;;;1.8;;
4325;SDS011;58429;49.826;10.880;2023-06-22T06:04:13;2.9;;;1.8;;
4325;SDS011;58429;49.826;10.880;2023-06-22T06:05:13;2.9;;;1.8;;
4325;SDS011;58429;49.826;10.880;2023-06-22T06:06:13;2.9;;;1.8;;
4325;SDS011;58429;49.826;10.880;2023-06-22T06:07:13;2.9;;;1.8;;
4325;SDS011;58429;49.826;10.880;2023-06-22T06:08:13;3.1;;;1.9;;
4325;SDS011;58429;49.826;10.880;2023-06-22T06:09:13;3.1;;;1.9;;
4325;SDS011;58429;49.826;10.880;2023-06-22T06:10:13;3.1;;;1.9;;
4325;SDS011;58429;49.826;10.880;2023-06-22T06:11:13;2.9;;;1.8;;
4325;SDS011;58429;49.826;10.880;2023-06-22T06:12:13;2.9;;;1.8;;
4325;SDS011;58429;49.826;10.880;2023-06-22T06:13:13;2.9;;;1.8;;